Time;durP1;ratioP1;P1;durP2;ratioP2;P2;SDS_P1;SDS_P2;PMS_P1;PMS_P2;Temp;Humidity;BMP_temperature;BMP_pressure;BME280_temperature;BME280_humidity;BME280_pressure;Samples;Min_cycle;Max_cycle;Signal;HPM_P1;HPM_P2
2021/11/02 00:00:25;;;;;;;84.90;35.10;;;0.60;99.90;;;;;;4110107;28;20273;-60
2021/11/02 00:02:26;;;;;;;84.53;38.10;;;0.50;99.90;;;;;;4111807;28;20332;-61
2021/11/02 00:04:27;;;;;;;87.07;37.67;;;0.50;99.90;;;;;;4110533;28;20661;-60
2021/11/02 00:06:29;;;;;;;81.40;37.50;;;0.50;99.90;;;;;;4111487;28;20820;-60
2021/11/02 00:08:30;;;;;;;80.47;35.90;;;0.50;99.90;;;;;;4110506;28;20611;-61
2021/11/02 00:10:33;;;;;;;94.23;37.30;;;0.50;99.90;;;;;;4111167;28;20359;-60
2021/11/02 00:12:34;;;;;;;85.87;35.97;;;0.30;99.90;;;;;;4110224;28;20312;-59
2021/11/02 00:14:35;;;;;;;76.50;35.37;;;0.30;99.90;;;;;;4111628;28;20669;-60
2021/11/02 00:16:37;;;;;;;75.10;33.50;;;0.30;99.90;;;;;;4109767;28;20277;-60
2021/11/02 00:18:43;;;;;;;80.30;36.17;;;0.30;99.90;;;;;;4111706;28;20371;-61
2021/11/02 00:20:44;;;;;;;83.13;34.27;;;0.40;99.90;;;;;;4110629;28;20753;-60
2021/11/02 00:22:56;;;;;;;79.57;34.23;;;0.40;99.90;;;;;;4110841;28;20319;-61
2021/11/02 00:25:04;;;;;;;68.27;33.13;;;0.40;99.90;;;;;;4110302;28;20269;-60
2021/11/02 00:27:06;;;;;;;85.30;37.33;;;0.40;99.90;;;;;;4111069;28;20298;-61
2021/11/02 00:29:08;;;;;;;89.93;38.97;;;0.40;99.90;;;;;;4109795;28;20680;-60
2021/11/02 00:31:10;;;;;;;91.20;38.00;;;0.40;99.90;;;;;;4109963;28;20288;-60
2021/11/02 00:33:12;;;;;;;91.77;38.93;;;0.30;99.90;;;;;;4110932;28;20883;-61
2021/11/02 00:35:14;;;;;;;85.30;36.53;;;0.20;99.90;;;;;;4109568;28;20827;-60
2021/11/02 00:37:16;;;;;;;88.83;39.93;;;0.10;99.90;;;;;;4111265;28;20669;-61
2021/11/02 00:39:17;;;;;;;91.13;40.20;;;0.10;99.90;;;;;;4109809;28;20273;-59
2021/11/02 00:41:18;;;;;;;93.27;38.97;;;0.00;99.90;;;;;;4110934;28;20697;-59
2021/11/02 00:43:24;;;;;;;91.93;39.47;;;0.00;99.90;;;;;;4110008;28;20281;-62
2021/11/02 00:45:36;;;;;;;89.23;41.03;;;-0.10;99.90;;;;;;4110965;28;20737;-60
2021/11/02 00:47:39;;;;;;;88.03;39.00;;;-0.20;99.90;;;;;;4109242;28;20276;-60
2021/11/02 00:49:40;;;;;;;86.73;40.43;;;-0.10;99.90;;;;;;4110685;28;20300;-59
2021/11/02 00:51:42;;;;;;;89.00;38.57;;;-0.10;99.90;;;;;;4109610;28;21275;-60
2021/11/02 00:53:43;;;;;;;90.67;39.07;;;-0.10;99.90;;;;;;4110478;28;20273;-58
2021/11/02 00:55:44;;;;;;;93.40;38.67;;;0.00;99.90;;;;;;4109611;28;20351;-60
2021/11/02 00:57:45;;;;;;;86.37;40.53;;;0.00;99.90;;;;;;4110646;28;20390;-61
2021/11/02 00:59:47;;;;;;;98.00;41.67;;;0.00;99.90;;;;;;4109614;28;20278;-60
2021/11/02 01:01:48;;;;;;;97.53;39.77;;;-0.10;99.90;;;;;;4110405;28;20273;-60
2021/11/02 01:03:49;;;;;;;96.40;40.90;;;-0.10;99.90;;;;;;4109493;28;20300;-65
2021/11/02 01:05:50;;;;;;;91.60;40.37;;;-0.10;99.90;;;;;;4109939;28;20273;-60
2021/11/02 01:07:51;;;;;;;87.50;36.50;;;-0.20;99.90;;;;;;4110266;28;20700;-60
2021/11/02 01:09:53;;;;;;;87.33;38.53;;;-0.10;99.90;;;;;;4109472;28;20967;-61
2021/11/02 01:11:54;;;;;;;89.10;39.17;;;-0.20;99.90;;;;;;4110448;28;20261;-60
2021/11/02 01:13:55;;;;;;;75.03;36.87;;;-0.20;99.90;;;;;;4108870;28;20273;-60
2021/11/02 01:15:56;;;;;;;87.67;35.67;;;-0.30;99.90;;;;;;4110778;28;20327;-61
2021/11/02 01:17:58;;;;;;;77.87;33.13;;;-0.30;99.90;;;;;;4109402;28;20348;-60
2021/11/02 01:19:59;;;;;;;73.97;31.67;;;-0.30;99.90;;;;;;4110838;28;20265;-60
2021/11/02 01:22:02;;;;;;;77.03;32.30;;;-0.40;99.90;;;;;;4109443;28;20277;-60
2021/11/02 01:24:03;;;;;;;70.43;31.53;;;-0.50;99.90;;;;;;4110314;28;20269;-60
2021/11/02 01:26:05;;;;;;;80.77;33.83;;;-0.60;99.90;;;;;;4108822;28;20799;-60
2021/11/02 01:28:06;;;;;;;72.27;32.23;;;-0.60;99.90;;;;;;4110486;28;20343;-60
2021/11/02 01:30:09;;;;;;;71.97;33.70;;;-0.70;99.90;;;;;;4108753;28;20300;-60
2021/11/02 01:32:10;;;;;;;78.80;35.17;;;-0.60;99.90;;;;;;4110163;28;20285;-60
2021/11/02 01:34:12;;;;;;;85.37;35.00;;;-0.60;99.90;;;;;;4109644;28;20256;-60
2021/11/02 01:36:13;;;;;;;74.80;34.10;;;-0.60;99.90;;;;;;4109888;28;20264;-59
2021/11/02 01:38:16;;;;;;;76.90;34.37;;;-0.60;99.90;;;;;;4109472;28;20261;-58
2021/11/02 01:40:18;;;;;;;73.33;34.00;;;-0.50;99.90;;;;;;4109096;28;21198;-57
2021/11/02 01:42:22;;;;;;;77.70;35.17;;;-0.40;99.90;;;;;;4110168;28;20753;-59
2021/11/02 01:44:23;;;;;;;72.53;33.07;;;-0.50;99.90;;;;;;4108713;28;20662;-60
2021/11/02 01:46:25;;;;;;;73.13;32.40;;;-0.50;99.90;;;;;;4109899;28;20269;-59
2021/11/02 01:48:27;;;;;;;69.17;32.37;;;-0.40;99.90;;;;;;4109102;28;20324;-61
2021/11/02 01:50:28;;;;;;;68.17;33.57;;;-0.40;99.90;;;;;;4110143;28;20301;-58
2021/11/02 01:52:29;;;;;;;71.73;31.93;;;-0.40;99.90;;;;;;4108883;28;20473;-61
2021/11/02 01:54:31;;;;;;;70.33;32.47;;;-0.40;99.90;;;;;;4109356;28;20757;-60
2021/11/02 01:56:34;;;;;;;75.17;32.90;;;-0.40;99.90;;;;;;4108594;28;20280;-60
2021/11/02 01:58:36;;;;;;;70.47;31.83;;;-0.30;99.90;;;;;;4109818;28;20288;-62
2021/11/02 02:00:38;;;;;;;67.20;30.87;;;-0.30;99.90;;;;;;4108506;28;20315;-60
2021/11/02 02:02:51;;;;;;;71.53;31.40;;;-0.30;99.90;;;;;;4109750;28;20261;-60
2021/11/02 02:05:15;;;;;;;68.30;32.37;;;-0.30;99.90;;;;;;4108653;28;20264;-59
2021/11/02 02:07:25;;;;;;;78.87;33.50;;;-0.30;99.90;;;;;;4109674;28;20280;-61
2021/11/02 02:10:05;;;;;;;78.22;33.28;;;-0.30;99.90;;;;;;4108629;28;20674;-61
2021/11/02 02:12:33;;;;;;;77.53;34.85;;;-0.30;99.90;;;;;;4108070;28;20447;-60
2021/11/02 02:14:34;;;;;;;70.70;31.97;;;-0.30;99.90;;;;;;4108755;28;20077;-61
2021/11/02 02:16:40;;;;;;;73.70;31.43;;;-0.30;99.90;;;;;;4109562;28;20272;-60
2021/11/02 02:19:00;;;;;;;69.53;31.87;;;-0.40;99.90;;;;;;4108805;28;20296;-60
2021/11/02 02:21:16;;;;;;;78.90;33.43;;;-0.50;99.90;;;;;;4109494;28;20293;-59
2021/11/02 02:23:39;;;;;;;73.50;33.37;;;-0.60;99.90;;;;;;4108789;28;20330;-61
2021/11/02 02:26:00;;;;;;;73.40;33.37;;;-0.60;99.90;;;;;;4108743;28;21062;-58
2021/11/02 02:28:23;;;;;;;77.88;34.20;;;-0.60;99.90;;;;;;4109110;28;20304;-60
2021/11/02 02:30:24;;;;;;;68.90;32.07;;;-0.70;99.90;;;;;;4108695;28;20561;-59
2021/11/02 02:32:28;;;;;;;69.97;32.10;;;-0.70;99.90;;;;;;4109158;28;20428;-61
2021/11/02 02:34:31;;;;;;;72.10;33.13;;;-0.80;99.90;;;;;;4108683;28;20311;-61
2021/11/02 02:36:33;;;;;;;75.83;32.77;;;-0.80;99.90;;;;;;4108249;28;20316;-61
2021/11/02 02:38:37;;;;;;;70.40;30.73;;;-0.90;99.90;;;;;;4109043;28;20264;-60
2021/11/02 02:40:41;;;;;;;73.33;30.40;;;-0.90;99.90;;;;;;4107852;28;20289;-59
2021/11/02 02:42:45;;;;;;;68.67;31.60;;;-1.00;99.90;;;;;;4108368;28;20317;-60
2021/11/02 02:44:50;;;;;;;81.87;32.73;;;-1.00;99.90;;;;;;4107730;28;20277;-60
2021/11/02 02:46:51;;;;;;;70.03;31.27;;;-1.00;99.90;;;;;;4109275;28;20261;-61
2021/11/02 02:48:54;;;;;;;73.77;32.77;;;-1.10;99.90;;;;;;4108417;28;20277;-61
2021/11/02 02:50:57;;;;;;;68.93;32.07;;;-1.10;99.90;;;;;;4109211;28;20363;-61
2021/11/02 02:53:00;;;;;;;77.80;33.33;;;-1.10;99.90;;;;;;4107569;28;20339;-60
2021/11/02 02:55:04;;;;;;;69.27;32.03;;;-1.10;99.90;;;;;;4109192;28;20816;-61
2021/11/02 02:57:05;;;;;;;70.67;32.30;;;-1.10;99.90;;;;;;4107900;28;20816;-54
2021/11/02 02:59:06;;;;;;;71.00;31.63;;;-1.00;99.90;;;;;;4109121;28;20276;-61
2021/11/02 03:01:10;;;;;;;72.33;32.00;;;-1.10;99.90;;;;;;4108232;28;20673;-60
2021/11/02 03:03:12;;;;;;;71.40;33.83;;;-1.20;99.90;;;;;;4109173;28;20813;-61
2021/11/02 03:05:14;;;;;;;80.10;35.10;;;-1.20;99.90;;;;;;4107511;28;20331;-61
2021/11/02 03:07:16;;;;;;;76.33;36.43;;;-1.10;99.90;;;;;;4108979;28;20335;-60
2021/11/02 03:09:17;;;;;;;79.67;35.93;;;-1.20;99.90;;;;;;4107617;28;20315;-60
2021/11/02 03:11:20;;;;;;;77.90;35.37;;;-1.20;99.90;;;;;;4107669;28;20362;-60
2021/11/02 03:13:24;;;;;;;85.43;36.93;;;-1.20;99.90;;;;;;4108427;28;20264;-61
2021/11/02 03:18:03;;;;;;;82.50;36.33;;;-1.30;99.90;;;;;;4108953;28;20339;-60
2021/11/02 03:51:11;;;;;;;96.77;41.87;;;-1.60;99.90;;;;;;4108797;28;20697;-60
2021/11/02 03:54:33;;;;;;;90.60;39.47;;;-1.60;99.90;;;;;;4104363;28;20280;-59
2021/11/02 03:55:44;;;;;;;86.73;37.80;;;-1.70;99.90;;;;;;4108200;28;20920;-60
2021/11/02 03:58:00;;;;;;;91.83;37.10;;;-1.70;99.90;;;;;;4107229;28;20257;-61
2021/11/02 05:47:03;;;;;;;80.73;39.43;;;-0.60;99.90;;;;;;4124852;28;20911;-62
2021/11/02 05:51:10;;;;;;;93.13;41.17;;;-0.10;99.90;;;;;;4123824;28;20353;-61
2021/11/02 06:05:01;;;;;;;104.57;42.00;;;1.60;99.90;;;;;;4109320;28;20617;-62
2021/11/02 06:09:46;;;;;;;90.60;38.70;;;2.30;99.90;;;;;;4125604;28;20339;-62
2021/11/02 06:28:38;;;;;;;88.13;40.85;;;4.20;99.90;;;;;;4121674;28;20729;-61
2021/11/02 06:32:47;;;;;;;85.17;41.60;;;4.40;99.90;;;;;;4122573;28;20096;-69
2021/11/02 06:46:32;;;;;;;75.13;37.97;;;4.30;99.90;;;;;;4121830;28;20073;-63
2021/11/02 06:48:43;;;;;;;74.07;37.70;;;4.30;99.90;;;;;;4125249;28;20280;-61
2021/11/02 06:58:59;;;;;;;65.70;33.57;;;4.60;99.90;;;;;;4118814;28;20299;-61
2021/11/02 07:19:30;;;;;;;77.00;34.57;;;4.40;99.90;;;;;;4124874;28;20272;-62
2021/11/02 08:47:17;;;;;;;33.00;16.47;;;7.40;99.90;;;;;;4126017;28;20038;-60
2021/11/02 08:49:19;;;;;;;35.67;15.40;;;7.70;99.90;;;;;;4122587;28;20034;-62
2021/11/02 08:51:20;;;;;;;33.90;16.50;;;7.80;99.90;;;;;;4123286;28;20054;-62
2021/11/02 08:53:24;;;;;;;36.27;16.87;;;7.90;99.90;;;;;;4122179;28;20026;-61
2021/11/02 08:55:25;;;;;;;31.77;15.90;;;8.10;99.90;;;;;;4123019;28;20367;-62
2021/11/02 08:57:27;;;;;;;30.23;17.13;;;8.30;99.90;;;;;;4125292;28;20482;-62
2021/11/02 08:59:33;;;;;;;34.90;16.97;;;8.50;99.90;;;;;;4125149;28;20681;-63
2021/11/02 09:01:36;;;;;;;26.73;14.10;;;8.60;99.90;;;;;;4126320;28;20089;-63
2021/11/02 09:03:44;;;;;;;26.73;12.73;;;8.80;99.90;;;;;;4137658;28;20014;-61
2021/11/02 09:05:51;;;;;;;28.60;13.87;;;8.90;99.90;;;;;;4130996;28;20042;-61
2021/11/02 09:07:55;;;;;;;49.67;23.13;;;9.20;99.90;;;;;;4125232;28;20101;-62
2021/11/02 09:09:58;;;;;;;21.90;13.33;;;9.30;99.90;;;;;;4125278;28;20031;-63
2021/11/02 09:12:02;;;;;;;20.20;11.67;;;9.40;99.90;;;;;;4125353;28;20034;-63
2021/11/02 09:14:03;;;;;;;18.43;10.70;;;9.50;99.90;;;;;;4124415;28;20038;-62
2021/11/02 09:16:05;;;;;;;17.27;9.77;;;9.60;99.90;;;;;;4123781;28;20500;-62
2021/11/02 09:18:09;;;;;;;18.30;10.07;;;9.70;99.90;;;;;;4125446;28;20432;-65
2021/11/02 09:20:11;;;;;;;20.40;10.80;;;9.80;99.90;;;;;;4126105;28;20034;-63
2021/11/02 09:22:14;;;;;;;18.47;8.80;;;10.00;99.90;;;;;;4123580;28;20454;-61
2021/11/02 09:24:18;;;;;;;15.57;8.63;;;10.20;99.90;;;;;;4124655;28;20454;-62
2021/11/02 09:26:20;;;;;;;13.63;8.27;;;10.40;99.90;;;;;;4135684;28;20037;-61
2021/11/02 09:28:25;;;;;;;22.83;8.63;;;10.40;99.90;;;;;;4142379;28;20030;-61
2021/11/02 09:30:26;;;;;;;15.23;8.73;;;10.50;99.90;;;;;;4135466;28;20042;-57
2021/11/02 09:32:28;;;;;;;14.47;8.03;;;10.60;99.30;;;;;;4124383;28;20050;-60
2021/11/02 09:34:30;;;;;;;13.37;7.30;;;10.70;98.90;;;;;;4124901;28;20531;-60
2021/11/02 09:36:52;;;;;;;17.83;8.27;;;10.70;98.50;;;;;;4123773;28;20046;-61
2021/11/02 09:39:13;;;;;;;15.67;7.73;;;10.70;98.10;;;;;;4121974;28;20514;-60
2021/11/02 09:41:27;;;;;;;17.08;8.90;;;10.70;98.00;;;;;;4125545;28;20454;-62
2021/11/02 09:44:11;;;;;;;18.60;9.47;;;10.80;97.80;;;;;;4124675;28;20426;-61
2021/11/02 09:46:49;;;;;;;15.00;8.87;;;10.80;96.70;;;;;;4090267;28;20039;-64
2021/11/02 09:49:28;;;;;;;14.13;7.80;;;10.90;97.50;;;;;;4118171;28;20046;-64
2021/11/02 09:51:51;;;;;;;15.87;7.73;;;11.10;97.50;;;;;;4130180;28;20038;-61
2021/11/02 09:54:03;;;;;;;12.97;7.30;;;11.20;97.10;;;;;;4139113;28;20370;-62
2021/11/02 09:56:23;;;;;;;36.33;18.10;;;11.20;96.30;;;;;;4127396;28;20072;-62
2021/11/02 09:59:07;;;;;;;24.43;13.30;;;11.20;96.30;;;;;;4125149;28;20046;-64
2021/11/02 10:01:23;;;;;;;23.30;10.53;;;10.90;96.20;;;;;;4088391;28;20050;-61
2021/11/02 10:03:47;;;;;;;18.77;9.03;;;10.70;97.10;;;;;;4124891;28;20042;-61
2021/11/02 10:06:09;;;;;;;17.60;10.03;;;10.60;96.70;;;;;;4122753;28;20097;-61
2021/11/02 10:08:15;;;;;;;17.13;9.23;;;10.50;96.90;;;;;;4133745;28;20026;-60
2021/11/02 10:10:22;;;;;;;20.33;10.03;;;10.50;97.00;;;;;;4126558;28;20100;-61
2021/11/02 10:12:29;;;;;;;18.83;9.93;;;10.40;96.90;;;;;;4124931;28;20046;-63
2021/11/02 10:14:53;;;;;;;20.50;10.83;;;10.40;96.60;;;;;;4122410;28;20034;-63
2021/11/02 10:17:25;;;;;;;27.67;15.63;;;10.40;96.50;;;;;;4138679;28;20049;-61
2021/11/02 10:19:52;;;;;;;31.13;15.83;;;10.40;96.30;;;;;;4128134;28;20046;-66
2021/11/02 10:22:14;;;;;;;19.40;9.87;;;10.40;96.60;;;;;;4122919;28;20513;-62
2021/11/02 10:24:31;;;;;;;20.27;10.27;;;10.40;96.30;;;;;;4123107;28;20041;-66
2021/11/02 10:26:51;;;;;;;16.20;9.27;;;10.40;96.70;;;;;;4131187;28;20710;-63
2021/11/02 10:29:40;;;;;;;23.20;10.10;;;10.40;96.50;;;;;;4135324;28;20157;-62
2021/11/02 10:31:48;;;;;;;18.67;8.47;;;10.40;95.70;;;;;;4074354;28;20056;-64
2021/11/02 10:34:01;;;;;;;19.30;8.97;;;10.30;95.80;;;;;;4124603;28;20046;-65
2021/11/02 10:36:23;;;;;;;18.80;9.43;;;10.40;96.00;;;;;;4123453;28;20111;-62
2021/11/02 10:38:29;;;;;;;26.60;10.73;;;10.30;96.10;;;;;;4124893;28;20767;-63
2021/11/02 10:40:53;;;;;;;20.43;11.23;;;10.30;96.30;;;;;;4123756;28;20046;-57
2021/11/02 10:43:23;;;;;;;29.57;12.73;;;10.30;96.30;;;;;;4124925;28;20061;-61
2021/11/02 10:45:29;;;;;;;27.17;13.40;;;10.30;96.50;;;;;;4113813;28;20807;-59
2021/11/02 10:47:53;;;;;;;39.03;13.17;;;10.20;96.70;;;;;;4124018;28;20073;-61
2021/11/02 10:49:54;;;;;;;21.00;11.00;;;10.20;96.80;;;;;;4137120;28;20042;-62
2021/11/02 10:51:58;;;;;;;19.10;9.83;;;10.10;96.80;;;;;;4140282;28;20053;-62
2021/11/02 10:54:05;;;;;;;23.23;10.93;;;10.10;96.80;;;;;;4127669;28;20096;-62
2021/11/02 10:56:28;;;;;;;22.97;10.60;;;10.10;97.20;;;;;;4124404;28;20023;-63
2021/11/02 10:58:36;;;;;;;19.00;9.33;;;10.00;96.80;;;;;;4124204;28;20026;-62
2021/11/02 11:00:37;;;;;;;23.07;9.93;;;9.90;97.00;;;;;;4123686;28;20031;-59
2021/11/02 11:02:43;;;;;;;17.57;9.90;;;9.90;97.10;;;;;;4123815;28;20050;-59
2021/11/02 11:04:47;;;;;;;21.23;9.83;;;9.90;96.80;;;;;;4125288;28;20038;-61
2021/11/02 11:06:54;;;;;;;19.27;9.70;;;9.90;96.60;;;;;;4140256;28;20183;-59
2021/11/02 11:08:58;;;;;;;19.90;10.07;;;9.90;96.40;;;;;;4140131;28;20034;-60
2021/11/02 11:11:00;;;;;;;20.00;10.20;;;9.90;96.30;;;;;;4139786;28;20088;-60
2021/11/02 11:13:02;;;;;;;20.80;10.50;;;9.90;96.50;;;;;;4140140;28;20042;-61
2021/11/02 11:15:07;;;;;;;19.87;10.43;;;10.00;96.40;;;;;;4106871;28;20474;-62
2021/11/02 11:17:17;;;;;;;18.03;9.80;;;10.00;96.50;;;;;;4124039;28;20197;-61
2021/11/02 11:19:27;;;;;;;19.27;9.63;;;10.00;96.20;;;;;;4123612;28;20034;-61
2021/11/02 11:21:34;;;;;;;18.13;9.50;;;10.00;96.30;;;;;;4124955;28;20546;-60
2021/11/02 11:23:37;;;;;;;19.13;9.73;;;10.00;96.40;;;;;;4123155;28;20039;-64
2021/11/02 11:25:46;;;;;;;21.53;11.07;;;10.10;96.50;;;;;;4122921;28;20077;-61
2021/11/02 11:27:56;;;;;;;19.77;10.17;;;10.10;96.40;;;;;;4123821;28;20093;-65
2021/11/02 11:30:06;;;;;;;35.85;15.52;;;10.10;96.60;;;;;;4124513;28;20034;-61
2021/11/02 11:32:07;;;;;;;30.23;15.23;;;10.10;97.30;;;;;;4125325;28;20034;-61
2021/11/02 11:34:10;;;;;;;38.87;17.47;;;10.00;97.70;;;;;;4133178;28;20109;-61
2021/11/02 11:36:15;;;;;;;37.30;19.63;;;9.90;98.10;;;;;;4143005;28;20496;-62
2021/11/02 11:38:17;;;;;;;46.57;19.07;;;9.80;98.60;;;;;;4141867;28;20042;-62
2021/11/02 11:40:21;;;;;;;45.10;21.70;;;9.70;99.20;;;;;;4138716;28;20058;-61
2021/11/02 11:42:29;;;;;;;40.23;19.03;;;9.70;99.30;;;;;;4127944;28;20502;-61
2021/11/02 11:44:30;;;;;;;37.43;17.90;;;9.60;99.80;;;;;;4133873;28;20035;-61
2021/11/02 11:46:33;;;;;;;30.23;15.77;;;9.50;99.90;;;;;;4126631;28;20097;-63
2021/11/02 11:48:42;;;;;;;36.67;17.20;;;9.40;99.90;;;;;;4126797;28;20105;-61
2021/11/02 11:50:44;;;;;;;38.28;17.92;;;9.30;99.90;;;;;;4127853;28;20422;-62
2021/11/02 11:52:49;;;;;;;52.13;20.17;;;9.20;99.90;;;;;;4125586;28;20105;-62
2021/11/02 11:54:55;;;;;;;45.63;21.20;;;9.10;99.90;;;;;;4126785;28;20054;-62
2021/11/02 11:57:00;;;;;;;37.50;18.17;;;9.10;99.90;;;;;;4126763;28;20023;-60
2021/11/02 11:59:02;;;;;;;38.80;19.87;;;9.00;99.90;;;;;;4127122;28;20100;-63
2021/11/02 12:01:18;;;;;;;37.87;16.57;;;9.00;99.90;;;;;;4126884;28;20034;-61
2021/11/02 12:03:28;;;;;;;37.47;18.00;;;9.00;99.90;;;;;;4125630;28;20026;-61
2021/11/02 12:05:30;;;;;;;35.00;16.55;;;8.90;99.90;;;;;;4139756;28;20068;-62
2021/11/02 12:07:37;;;;;;;29.27;16.00;;;8.80;99.90;;;;;;4126389;28;20084;-61
2021/11/02 12:09:44;;;;;;;31.67;16.30;;;8.80;99.90;;;;;;4124560;28;20026;-60
2021/11/02 12:11:46;;;;;;;34.87;16.97;;;8.70;99.90;;;;;;4126666;28;20625;-61
2021/11/02 12:13:51;;;;;;;35.27;17.00;;;8.70;99.90;;;;;;4126429;28;20101;-65
2021/11/02 12:18:06;;;;;;;39.15;17.10;;;8.70;99.90;;;;;;4125863;28;20034;-61
2021/11/02 12:20:11;;;;;;;38.07;16.47;;;8.80;99.90;;;;;;4126945;28;20031;-64
2021/11/02 12:22:18;;;;;;;36.80;17.77;;;8.80;99.90;;;;;;4132622;28;20076;-62
2021/11/02 12:24:28;;;;;;;37.53;17.97;;;8.80;99.90;;;;;;4142198;28;20501;-59
2021/11/02 12:26:48;;;;;;;36.53;19.20;;;8.80;99.90;;;;;;4134761;28;20019;-60
2021/11/02 12:28:49;;;;;;;42.92;19.65;;;8.80;99.90;;;;;;4125571;28;20030;-62
2021/11/02 12:30:51;;;;;;;36.53;19.17;;;8.80;99.90;;;;;;4140712;28;20120;-63
2021/11/02 12:32:59;;;;;;;48.97;23.13;;;8.80;99.90;;;;;;4122616;28;20046;-61
2021/11/02 12:35:08;;;;;;;52.47;24.87;;;8.80;99.90;;;;;;4126347;28;20034;-62
2021/11/02 12:37:11;;;;;;;46.60;23.50;;;8.80;99.90;;;;;;4125663;28;20375;-63
2021/11/02 12:39:12;;;;;;;54.60;25.50;;;8.80;99.90;;;;;;4138785;28;20057;-60
2021/11/02 12:41:20;;;;;;;50.27;24.90;;;8.70;99.90;;;;;;4138897;28;20053;-60
2021/11/02 12:43:29;;;;;;;52.97;24.90;;;8.70;99.90;;;;;;4109805;28;20456;-64
2021/11/02 12:45:41;;;;;;;43.60;21.23;;;8.60;99.90;;;;;;4113141;28;20042;-61
2021/11/02 12:47:48;;;;;;;38.13;20.13;;;8.50;99.90;;;;;;4126605;28;20038;-63
2021/11/02 12:49:58;;;;;;;41.77;21.50;;;8.40;99.90;;;;;;4125134;28;20034;-66
2021/11/02 12:52:11;;;;;;;49.22;24.95;;;8.40;99.90;;;;;;4127017;28;20399;-62
2021/11/02 12:54:15;;;;;;;67.97;31.90;;;8.30;99.90;;;;;;4125838;28;20568;-62
2021/11/02 12:56:20;;;;;;;67.40;32.83;;;8.20;99.90;;;;;;4126445;28;20038;-62
2021/11/02 12:58:23;;;;;;;55.50;28.10;;;8.20;99.90;;;;;;4124620;28;20040;-61
2021/11/02 13:00:27;;;;;;;68.10;31.07;;;8.10;99.90;;;;;;4123532;28;20034;-62
2021/11/02 13:02:36;;;;;;;75.80;33.10;;;8.10;99.90;;;;;;4124793;28;20097;-59
2021/11/02 13:04:41;;;;;;;74.00;31.37;;;8.10;99.90;;;;;;4126600;28;20042;-63
2021/11/02 13:06:50;;;;;;;56.83;27.93;;;8.10;99.90;;;;;;4124146;28;20034;-60
2021/11/02 13:09:00;;;;;;;62.17;27.60;;;8.00;99.90;;;;;;4110449;28;20431;-62
2021/11/02 13:11:18;;;;;;;59.58;27.70;;;7.90;99.90;;;;;;4109043;28;20086;-62
2021/11/02 13:13:22;;;;;;;54.50;26.70;;;7.90;99.90;;;;;;4110836;28;20113;-60
2021/11/02 13:15:25;;;;;;;50.07;27.17;;;7.80;99.90;;;;;;4109067;28;20889;-59
2021/11/02 13:17:36;;;;;;;54.87;25.30;;;7.70;99.90;;;;;;4124004;28;20470;-62
2021/11/02 13:19:42;;;;;;;53.43;26.10;;;7.70;99.90;;;;;;4125287;28;20061;-58
2021/11/02 13:21:45;;;;;;;62.10;29.60;;;7.60;99.90;;;;;;4125575;28;20030;-61
2021/11/02 13:24:04;;;;;;;55.00;28.03;;;7.60;99.90;;;;;;4124963;28;20078;-61
2021/11/02 13:26:16;;;;;;;54.00;25.97;;;7.50;99.90;;;;;;4126342;28;20054;-61
2021/11/02 13:28:17;;;;;;;48.43;23.67;;;7.50;99.90;;;;;;4125637;28;20093;-61
2021/11/02 13:30:40;;;;;;;46.40;24.53;;;7.40;99.90;;;;;;4125739;28;20097;-61
2021/11/02 13:33:01;;;;;;;46.73;24.23;;;7.30;99.90;;;;;;4124683;28;20038;-60
2021/11/02 13:35:03;;;;;;;50.77;23.93;;;7.30;99.90;;;;;;4125965;28;20398;-61
2021/11/02 13:37:05;;;;;;;50.83;24.57;;;7.30;99.90;;;;;;4124247;28;20437;-61
2021/11/02 13:39:08;;;;;;;49.90;24.77;;;7.30;99.90;;;;;;4124149;28;20097;-61
2021/11/02 13:41:15;;;;;;;42.00;22.47;;;7.40;99.90;;;;;;4124649;28;20050;-62
2021/11/02 13:43:38;;;;;;;53.33;23.97;;;7.30;99.90;;;;;;4125646;28;20061;-59
2021/11/02 13:45:39;;;;;;;50.50;24.37;;;7.30;99.90;;;;;;4124387;28;20502;-60
2021/11/02 13:47:42;;;;;;;50.30;23.90;;;7.40;99.90;;;;;;4125444;28;20034;-61
2021/11/02 13:49:44;;;;;;;42.73;22.90;;;7.40;99.90;;;;;;4124179;28;20088;-61
2021/11/02 13:51:46;;;;;;;47.50;23.03;;;7.40;99.90;;;;;;4123233;28;20519;-60
2021/11/02 13:53:47;;;;;;;45.60;24.23;;;7.40;99.90;;;;;;4123591;28;20050;-60
2021/11/02 13:55:51;;;;;;;50.33;24.33;;;7.50;99.90;;;;;;4125145;28;20729;-61
2021/11/02 13:57:52;;;;;;;45.70;23.20;;;7.50;99.90;;;;;;4124153;28;20067;-60
2021/11/02 13:59:53;;;;;;;54.97;25.43;;;7.60;99.90;;;;;;4124984;28;20097;-60
2021/11/02 14:01:56;;;;;;;50.47;24.63;;;7.60;99.90;;;;;;4124892;28;20421;-59
2021/11/02 14:04:05;;;;;;;52.87;26.20;;;7.60;99.90;;;;;;4123229;28;20659;-61
2021/11/02 14:06:10;;;;;;;50.03;25.87;;;7.60;99.90;;;;;;4125884;28;20033;-61
2021/11/02 14:08:12;;;;;;;50.57;26.57;;;7.60;99.90;;;;;;4124087;28;20871;-59
2021/11/02 14:10:15;;;;;;;58.20;29.30;;;7.60;99.90;;;;;;4125388;28;20035;-60
2021/11/02 14:12:30;;;;;;;55.10;28.60;;;7.70;99.90;;;;;;4131767;28;20041;-60
2021/11/02 14:14:34;;;;;;;55.63;27.43;;;7.70;99.90;;;;;;4141275;28;20100;-63
2021/11/02 14:16:38;;;;;;;57.40;28.63;;;7.70;99.90;;;;;;4128621;28;20050;-61
2021/11/02 14:18:40;;;;;;;52.30;26.83;;;7.70;99.90;;;;;;4124186;28;20578;-61
2021/11/02 14:20:51;;;;;;;55.43;26.00;;;7.70;99.90;;;;;;4123872;28;20034;-61
2021/11/02 14:22:52;;;;;;;52.15;25.23;;;7.70;99.90;;;;;;4125815;28;20065;-61
2021/11/02 14:25:12;;;;;;;46.20;21.10;;;7.70;99.90;;;;;;4123854;28;20039;-61
2021/11/02 14:27:20;;;;;;;41.27;20.87;;;7.60;99.90;;;;;;4125330;28;20038;-61
2021/11/02 14:29:51;;;;;;;45.73;21.67;;;7.60;99.90;;;;;;4123902;28;20431;-61
2021/11/02 14:31:52;;;;;;;38.80;19.47;;;7.50;99.90;;;;;;4125411;28;20026;-62
2021/11/02 14:33:53;;;;;;;45.43;20.77;;;7.50;99.90;;;;;;4123964;28;20104;-63
2021/11/02 14:36:04;;;;;;;49.73;23.50;;;7.40;99.90;;;;;;4124249;28;20046;-64
2021/11/02 14:38:11;;;;;;;41.00;20.93;;;7.40;99.90;;;;;;4123773;28;20384;-61
2021/11/02 14:40:31;;;;;;;42.20;20.70;;;7.40;99.90;;;;;;4124035;28;20054;-61
2021/11/02 14:42:49;;;;;;;45.20;20.00;;;7.30;99.90;;;;;;4122474;28;20442;-62
2021/11/02 14:44:51;;;;;;;45.00;20.13;;;7.30;99.90;;;;;;4123867;28;20041;-62
2021/11/02 14:47:00;;;;;;;42.77;21.23;;;7.30;99.90;;;;;;4123843;28;20762;-62
2021/11/02 14:49:01;;;;;;;39.17;19.67;;;7.20;99.90;;;;;;4124891;28;20045;-62
2021/11/02 14:51:06;;;;;;;41.50;19.67;;;7.20;99.90;;;;;;4123763;28;20026;-62
2021/11/02 14:53:27;;;;;;;41.30;20.67;;;7.20;99.90;;;;;;4125005;28;20042;-61
2021/11/02 14:55:52;;;;;;;46.37;20.83;;;7.20;99.90;;;;;;4127739;28;20548;-62
2021/11/02 14:57:53;;;;;;;41.83;22.03;;;7.20;99.90;;;;;;4128349;28;20046;-62
2021/11/02 15:00:00;;;;;;;41.57;20.73;;;7.20;99.90;;;;;;4127645;28;20088;-62
2021/11/02 15:02:06;;;;;;;38.80;19.77;;;7.30;99.90;;;;;;4123812;28;20056;-62
2021/11/02 15:04:13;;;;;;;42.57;20.87;;;7.30;99.90;;;;;;4120642;28;20092;-63
2021/11/02 15:06:15;;;;;;;41.37;20.97;;;7.30;99.90;;;;;;4126392;28;20042;-63
2021/11/02 15:08:20;;;;;;;49.90;21.17;;;7.30;99.90;;;;;;4120688;28;20026;-62
2021/11/02 15:10:23;;;;;;;36.97;19.83;;;7.30;99.90;;;;;;4124881;28;20034;-63
2021/11/02 15:12:24;;;;;;;42.63;21.90;;;7.30;99.90;;;;;;4123893;28;20030;-61
2021/11/02 15:14:34;;;;;;;40.83;20.10;;;7.30;99.90;;;;;;4125086;28;20035;-60
2021/11/02 15:16:44;;;;;;;37.13;19.23;;;7.30;99.90;;;;;;4121487;28;20391;-61
2021/11/02 15:18:51;;;;;;;41.10;18.88;;;7.30;99.90;;;;;;4124505;28;20108;-62
2021/11/02 15:21:01;;;;;;;39.40;19.63;;;7.30;99.90;;;;;;4123586;28;20097;-61
2021/11/02 15:23:03;;;;;;;37.95;19.52;;;7.30;99.90;;;;;;4121975;28;20034;-63
2021/11/02 15:25:07;;;;;;;36.43;19.30;;;7.30;99.90;;;;;;4122593;28;20058;-62
2021/11/02 15:27:23;;;;;;;39.77;20.00;;;7.20;99.90;;;;;;4122563;28;20031;-61
2021/11/02 15:29:30;;;;;;;39.37;19.80;;;7.20;99.90;;;;;;4122469;28;20084;-61
2021/11/02 15:31:31;;;;;;;42.37;21.23;;;7.20;99.90;;;;;;4124890;28;20046;-62
2021/11/02 15:33:36;;;;;;;37.83;19.57;;;7.20;99.90;;;;;;4123533;28;20152;-61
2021/11/02 15:35:39;;;;;;;39.57;20.93;;;7.20;99.90;;;;;;4124358;28;20411;-60
2021/11/02 15:37:43;;;;;;;49.77;25.13;;;7.20;99.90;;;;;;4123270;28;20043;-61
2021/11/02 15:39:57;;;;;;;52.50;25.87;;;7.20;99.90;;;;;;4124390;28;20081;-61
2021/11/02 15:41:58;;;;;;;47.80;22.87;;;7.20;99.90;;;;;;4122248;28;20038;-61
2021/11/02 15:44:03;;;;;;;48.93;24.97;;;7.20;99.90;;;;;;4122084;28;20086;-61
2021/11/02 15:46:05;;;;;;;45.97;22.33;;;7.20;99.90;;;;;;4122904;28;20042;-61
2021/11/02 15:48:13;;;;;;;44.63;23.50;;;7.20;99.90;;;;;;4123450;28;20038;-62
2021/11/02 15:50:24;;;;;;;40.40;22.13;;;7.20;99.90;;;;;;4123025;28;20097;-60
2021/11/02 15:52:28;;;;;;;45.53;21.52;;;7.10;99.90;;;;;;4123928;28;20034;-61